CCA2867 ZBTJ-ZPPP
Flight info
| Callsign | CCA2867 |
|---|---|
| Flight time | N/A |
| Altitude | 36100 |
| Route | PEGSO B215 GODON W43 SAVPA W276 ARELA W30 MEBNA |
| Aircraft | B77W/H-SDE1E2E3FGHIJ2J3J4J5M1RWXY/LB1D1 |
Departure
| Time | 2026-04-18 07:44 |
|---|---|
| Airport | Tianjin Binhai International Airport (ZBTJ) |
Arrival
| Time | N/A |
|---|---|
| Airport | Kunming Changshui International Airport (ZPPP) |
| Time | Latitude | Longitude | Altitude | Speed | Heading |
|---|---|---|---|---|---|
| 2026-04-18 07:27 | 39.12808 | 117.34970 | 28 ft | 1 kts | 302° |
| 2026-04-18 07:28 | 39.12807 | 117.34972 | 28 ft | 0 kts | 299° |
| 2026-04-18 07:34 | 39.12809 | 117.34966 | 26 ft | 1 kts | 297° |
| 2026-04-18 07:35 | 39.12813 | 117.34953 | 27 ft | 2 kts | 290° |
| 2026-04-18 07:35 | 39.12814 | 117.34936 | 29 ft | 2 kts | 271° |
| 2026-04-18 07:35 | 39.12813 | 117.34908 | 29 ft | 4 kts | 262° |
| 2026-04-18 07:35 | 39.12803 | 117.34873 | 27 ft | 5 kts | 248° |
| 2026-04-18 07:36 | 39.12792 | 117.34827 | 27 ft | 6 kts | 264° |
| 2026-04-18 07:36 | 39.12808 | 117.34781 | 25 ft | 6 kts | 313° |
| 2026-04-18 07:36 | 39.12847 | 117.34750 | 27 ft | 7 kts | 332° |
| 2026-04-18 07:36 | 39.12896 | 117.34720 | 28 ft | 8 kts | 334° |
| 2026-04-18 07:37 | 39.12951 | 117.34685 | 26 ft | 9 kts | 334° |
| 2026-04-18 07:37 | 39.13014 | 117.34647 | 26 ft | 11 kts | 334° |
| 2026-04-18 07:37 | 39.13083 | 117.34603 | 26 ft | 12 kts | 334° |
| 2026-04-18 07:37 | 39.13160 | 117.34558 | 26 ft | 13 kts | 335° |
| 2026-04-18 07:38 | 39.13242 | 117.34508 | 29 ft | 13 kts | 334° |
| 2026-04-18 07:38 | 39.13329 | 117.34454 | 27 ft | 14 kts | 334° |
| 2026-04-18 07:38 | 39.13422 | 117.34398 | 25 ft | 15 kts | 335° |
| 2026-04-18 07:38 | 39.13516 | 117.34340 | 26 ft | 15 kts | 334° |
| 2026-04-18 07:39 | 39.13610 | 117.34283 | 28 ft | 15 kts | 334° |
| 2026-04-18 07:39 | 39.13704 | 117.34226 | 27 ft | 15 kts | 334° |
| 2026-04-18 07:39 | 39.13798 | 117.34168 | 28 ft | 15 kts | 334° |
| 2026-04-18 07:39 | 39.13892 | 117.34111 | 27 ft | 15 kts | 334° |
| 2026-04-18 07:40 | 39.13985 | 117.34054 | 28 ft | 15 kts | 334° |
| 2026-04-18 07:40 | 39.14079 | 117.33996 | 27 ft | 15 kts | 334° |
| 2026-04-18 07:40 | 39.14143 | 117.33944 | 29 ft | 9 kts | 304° |
| 2026-04-18 07:40 | 39.14137 | 117.33862 | 27 ft | 10 kts | 247° |
| 2026-04-18 07:41 | 39.14123 | 117.33822 | 29 ft | 1 kts | 245° |
| 2026-04-18 07:41 | 39.14119 | 117.33811 | 26 ft | 2 kts | 245° |
| 2026-04-18 07:41 | 39.14111 | 117.33789 | 27 ft | 3 kts | 244° |
| 2026-04-18 07:41 | 39.14099 | 117.33756 | 27 ft | 5 kts | 244° |
| 2026-04-18 07:42 | 39.14083 | 117.33714 | 28 ft | 6 kts | 244° |
| 2026-04-18 07:42 | 39.14062 | 117.33667 | 28 ft | 6 kts | 228° |
| 2026-04-18 07:42 | 39.14020 | 117.33652 | 25 ft | 7 kts | 172° |
| 2026-04-18 07:42 | 39.13974 | 117.33672 | 26 ft | 7 kts | 155° |
| 2026-04-18 07:43 | 39.13938 | 117.33694 | 26 ft | 0 kts | 154° |
| 2026-04-18 07:43 | 39.13935 | 117.33696 | 28 ft | 1 kts | 154° |
| 2026-04-18 07:43 | 39.13900 | 117.33717 | 27 ft | 19 kts | 154° |
| 2026-04-18 07:43 | 39.13509 | 117.33955 | 29 ft | 105 kts | 154° |
| 2026-04-18 07:44 | 39.12620 | 117.34480 | 27 ft | 172 kts | 161° |
| 2026-04-18 07:44 | 39.11475 | 117.35123 | 648 ft | 178 kts | 155° |
| 2026-04-18 07:44 | 39.10386 | 117.35830 | 1641 ft | 174 kts | 157° |
| 2026-04-18 07:44 | 39.09304 | 117.36536 | 2488 ft | 177 kts | 157° |
| 2026-04-18 07:45 | 39.08175 | 117.37228 | 3205 ft | 181 kts | 159° |
| 2026-04-18 07:45 | 39.06986 | 117.37959 | 3708 ft | 201 kts | 158° |
| 2026-04-18 07:45 | 39.05620 | 117.38802 | 3938 ft | 235 kts | 158° |
| 2026-04-18 07:45 | 39.04068 | 117.39751 | 4476 ft | 254 kts | 158° |
| 2026-04-18 07:46 | 39.02458 | 117.40735 | 5387 ft | 259 kts | 158° |
| 2026-04-18 07:46 | 39.00814 | 117.41733 | 6309 ft | 263 kts | 158° |
| 2026-04-18 07:46 | 38.99158 | 117.42747 | 7213 ft | 264 kts | 155° |
| 2026-04-18 07:46 | 38.97750 | 117.44328 | 7910 ft | 281 kts | 127° |
| 2026-04-18 07:47 | 38.97082 | 117.46721 | 8796 ft | 293 kts | 100° |
| 2026-04-18 07:47 | 38.97136 | 117.49372 | 9696 ft | 302 kts | 86° |
| 2026-04-18 07:47 | 38.97455 | 117.52061 | 10419 ft | 311 kts | 83° |
| 2026-04-18 07:47 | 38.97832 | 117.54918 | 10694 ft | 339 kts | 83° |
| 2026-04-18 07:48 | 38.98236 | 117.58036 | 10937 ft | 368 kts | 83° |
| 2026-04-18 07:48 | 38.98635 | 117.61305 | 11591 ft | 378 kts | 85° |
| 2026-04-18 07:48 | 38.98518 | 117.64677 | 12332 ft | 382 kts | 107° |
| 2026-04-18 07:48 | 38.97395 | 117.67751 | 13436 ft | 382 kts | 128° |
| 2026-04-18 07:49 | 38.95520 | 117.70151 | 14309 ft | 383 kts | 147° |
| 2026-04-18 07:49 | 38.93144 | 117.71677 | 14715 ft | 383 kts | 165° |
| 2026-04-18 07:49 | 38.90509 | 117.71961 | 14697 ft | 381 kts | 190° |
| 2026-04-18 07:49 | 38.88054 | 117.70798 | 14698 ft | 377 kts | 214° |
| 2026-04-18 07:50 | 38.86237 | 117.68429 | 14695 ft | 375 kts | 239° |
| 2026-04-18 07:50 | 38.85390 | 117.65303 | 14698 ft | 375 kts | 264° |
| 2026-04-18 07:50 | 38.85650 | 117.61991 | 14700 ft | 372 kts | 284° |
| 2026-04-18 07:50 | 38.86218 | 117.58727 | 14690 ft | 373 kts | 274° |
| 2026-04-18 07:51 | 38.86335 | 117.55459 | 14679 ft | 371 kts | 275° |
| 2026-04-18 07:51 | 38.87039 | 117.52231 | 14696 ft | 382 kts | 291° |
| 2026-04-18 07:51 | 38.88171 | 117.49132 | 14686 ft | 382 kts | 294° |
| 2026-04-18 07:51 | 38.89280 | 117.46036 | 14684 ft | 381 kts | 291° |
| 2026-04-18 07:52 | 38.90262 | 117.42881 | 14681 ft | 382 kts | 289° |
| 2026-04-18 07:52 | 38.91181 | 117.39682 | 14681 ft | 381 kts | 288° |
| 2026-04-18 07:52 | 38.91755 | 117.36437 | 14674 ft | 372 kts | 271° |
| 2026-04-18 07:52 | 38.91498 | 117.33134 | 14682 ft | 374 kts | 256° |
| 2026-04-18 07:53 | 38.90560 | 117.30024 | 14685 ft | 376 kts | 243° |
| 2026-04-18 07:53 | 38.89295 | 117.27057 | 14673 ft | 380 kts | 242° |
| 2026-04-18 07:53 | 38.88038 | 117.24101 | 14665 ft | 376 kts | 242° |
| 2026-04-18 07:53 | 38.86798 | 117.21138 | 14672 ft | 378 kts | 242° |
| 2026-04-18 07:54 | 38.85572 | 117.18165 | 14669 ft | 377 kts | 242° |
| 2026-04-18 07:54 | 38.84342 | 117.15168 | 14672 ft | 381 kts | 243° |
| 2026-04-18 07:54 | 38.83118 | 117.12185 | 14656 ft | 375 kts | 243° |
| 2026-04-18 07:54 | 38.81912 | 117.09248 | 14658 ft | 370 kts | 242° |
| 2026-04-18 07:55 | 38.80713 | 117.06332 | 14667 ft | 370 kts | 243° |
| 2026-04-18 07:55 | 38.79512 | 117.03415 | 14661 ft | 369 kts | 242° |
| 2026-04-18 07:55 | 38.78318 | 117.00516 | 14657 ft | 366 kts | 243° |
| 2026-04-18 07:55 | 38.77143 | 116.97666 | 14651 ft | 358 kts | 242° |
| 2026-04-18 07:56 | 38.75978 | 116.94846 | 14662 ft | 359 kts | 242° |
| 2026-04-18 07:56 | 38.74786 | 116.91970 | 14676 ft | 373 kts | 242° |
| 2026-04-18 07:56 | 38.73534 | 116.88999 | 14677 ft | 382 kts | 242° |
| 2026-04-18 07:56 | 38.72270 | 116.86023 | 14663 ft | 378 kts | 242° |
| 2026-04-18 07:57 | 38.71020 | 116.83082 | 14661 ft | 376 kts | 242° |
| 2026-04-18 07:57 | 38.69761 | 116.80119 | 14670 ft | 381 kts | 242° |
| 2026-04-18 07:57 | 38.68502 | 116.77156 | 14658 ft | 375 kts | 242° |
| 2026-04-18 07:57 | 38.67265 | 116.74244 | 14654 ft | 371 kts | 242° |
| 2026-04-18 07:58 | 38.64772 | 116.68327 | 14655 ft | 375 kts | 245° |
| 2026-04-18 07:58 | 38.64031 | 116.65163 | 14661 ft | 372 kts | 263° |
| 2026-04-18 07:58 | 38.63997 | 116.61848 | 14672 ft | 376 kts | 271° |
| 2026-04-18 07:59 | 38.64117 | 116.58470 | 14670 ft | 382 kts | 271° |
| 2026-04-18 07:59 | 38.64242 | 116.55095 | 14652 ft | 375 kts | 271° |
| 2026-04-18 07:59 | 38.64358 | 116.51780 | 14656 ft | 373 kts | 271° |
| 2026-04-18 07:59 | 38.64466 | 116.48431 | 14670 ft | 381 kts | 271° |
| 2026-04-18 08:00 | 38.64569 | 116.45042 | 14661 ft | 379 kts | 271° |
| 2026-04-18 08:00 | 38.64664 | 116.41704 | 14655 ft | 374 kts | 271° |
| 2026-04-18 08:00 | 38.64755 | 116.38361 | 14668 ft | 378 kts | 271° |
| 2026-04-18 08:00 | 38.64845 | 116.34987 | 14659 ft | 380 kts | 271° |
| 2026-04-18 08:01 | 38.64933 | 116.31633 | 14650 ft | 376 kts | 271° |
| 2026-04-18 08:01 | 38.65020 | 116.28293 | 14659 ft | 376 kts | 271° |
| 2026-04-18 08:01 | 38.65105 | 116.24943 | 14663 ft | 378 kts | 271° |
| 2026-04-18 08:01 | 38.65190 | 116.21584 | 14667 ft | 379 kts | 271° |
| 2026-04-18 08:02 | 38.65275 | 116.18218 | 14649 ft | 375 kts | 271° |
| 2026-04-18 08:02 | 38.65359 | 116.14901 | 14647 ft | 371 kts | 271° |
| 2026-04-18 08:02 | 38.65443 | 116.11624 | 14645 ft | 366 kts | 272° |
| 2026-04-18 08:02 | 38.65920 | 116.08449 | 14681 ft | 368 kts | 289° |
| 2026-04-18 08:03 | 38.67155 | 116.05555 | 15392 ft | 376 kts | 300° |
| 2026-04-18 08:03 | 38.68586 | 116.02699 | 16274 ft | 384 kts | 301° |
| 2026-04-18 08:03 | 38.70044 | 115.99832 | 17332 ft | 386 kts | 301° |
| 2026-04-18 08:03 | 38.71518 | 115.96931 | 18307 ft | 391 kts | 301° |
| 2026-04-18 08:04 | 38.73007 | 115.93978 | 19112 ft | 397 kts | 301° |
| 2026-04-18 08:04 | 38.74508 | 115.90981 | 19970 ft | 402 kts | 301° |
| 2026-04-18 08:04 | 38.76019 | 115.87953 | 20836 ft | 406 kts | 301° |
| 2026-04-18 08:04 | 38.77522 | 115.84930 | 21672 ft | 410 kts | 301° |
| 2026-04-18 08:05 | 38.79063 | 115.81822 | 22480 ft | 415 kts | 301° |
| 2026-04-18 08:05 | 38.80619 | 115.78678 | 23293 ft | 420 kts | 301° |
| 2026-04-18 08:05 | 38.82192 | 115.75496 | 23972 ft | 425 kts | 301° |
| 2026-04-18 08:05 | 38.83780 | 115.72283 | 24681 ft | 428 kts | 301° |
| 2026-04-18 08:06 | 38.85375 | 115.69051 | 25383 ft | 431 kts | 301° |
| 2026-04-18 08:06 | 38.86983 | 115.65790 | 26060 ft | 434 kts | 302° |
| 2026-04-18 08:06 | 38.88603 | 115.62502 | 26703 ft | 438 kts | 302° |
| 2026-04-18 08:06 | 38.90233 | 115.59192 | 27337 ft | 441 kts | 302° |
| 2026-04-18 08:07 | 38.91845 | 115.55836 | 27924 ft | 441 kts | 298° |
| 2026-04-18 08:07 | 38.92886 | 115.52098 | 28290 ft | 450 kts | 280° |
| 2026-04-18 08:07 | 38.93019 | 115.48066 | 28869 ft | 456 kts | 266° |
| 2026-04-18 08:07 | 38.92404 | 115.44055 | 29480 ft | 462 kts | 252° |
| 2026-04-18 08:08 | 38.91149 | 115.40247 | 29938 ft | 467 kts | 248° |
| 2026-04-18 08:08 | 38.89755 | 115.36453 | 30277 ft | 472 kts | 247° |
| 2026-04-18 08:08 | 38.88333 | 115.32646 | 30724 ft | 474 kts | 247° |
| 2026-04-18 08:08 | 38.86924 | 115.28830 | 31312 ft | 471 kts | 248° |
| 2026-04-18 08:09 | 38.85546 | 115.25026 | 31937 ft | 469 kts | 248° |
| 2026-04-18 08:09 | 38.84194 | 115.21234 | 32504 ft | 467 kts | 249° |
| 2026-04-18 08:09 | 38.82854 | 115.17443 | 33023 ft | 467 kts | 249° |
| 2026-04-18 08:09 | 38.81520 | 115.13659 | 33571 ft | 466 kts | 249° |
| 2026-04-18 08:10 | 38.80184 | 115.09876 | 34046 ft | 465 kts | 249° |
| 2026-04-18 08:10 | 38.78853 | 115.06115 | 34517 ft | 463 kts | 249° |
| 2026-04-18 08:10 | 38.77523 | 115.02367 | 34980 ft | 461 kts | 249° |
| 2026-04-18 08:10 | 38.76196 | 114.98636 | 35419 ft | 460 kts | 249° |
| 2026-04-18 08:11 | 38.74871 | 114.94913 | 35838 ft | 459 kts | 249° |
| 2026-04-18 08:11 | 38.73543 | 114.91178 | 35958 ft | 462 kts | 249° |
| 2026-04-18 08:11 | 38.72210 | 114.87434 | 35952 ft | 461 kts | 249° |
| 2026-04-18 08:12 | 38.69560 | 114.80001 | 35942 ft | 458 kts | 249° |
| 2026-04-18 08:12 | 38.66915 | 114.72598 | 35948 ft | 458 kts | 249° |
| 2026-04-18 08:13 | 38.64264 | 114.65194 | 35947 ft | 458 kts | 249° |
| 2026-04-18 08:13 | 38.61603 | 114.57782 | 35943 ft | 459 kts | 249° |
| 2026-04-18 08:14 | 38.58946 | 114.50364 | 35939 ft | 459 kts | 249° |
| 2026-04-18 08:14 | 38.56263 | 114.42956 | 35947 ft | 459 kts | 248° |
| 2026-04-18 08:15 | 38.53569 | 114.35555 | 35942 ft | 460 kts | 248° |
| 2026-04-18 08:15 | 38.50891 | 114.28203 | 35945 ft | 460 kts | 248° |
| 2026-04-18 08:16 | 38.48194 | 114.20814 | 35950 ft | 459 kts | 248° |
| 2026-04-18 08:16 | 38.45495 | 114.13434 | 35949 ft | 459 kts | 249° |
| 2026-04-18 08:17 | 38.42792 | 114.06060 | 35953 ft | 459 kts | 249° |
| 2026-04-18 08:17 | 38.40084 | 113.98683 | 35954 ft | 459 kts | 249° |
| 2026-04-18 08:18 | 38.37380 | 113.91316 | 35956 ft | 459 kts | 249° |
| 2026-04-18 08:18 | 38.34673 | 113.83958 | 35952 ft | 459 kts | 249° |
| 2026-04-18 08:19 | 38.31939 | 113.76623 | 35956 ft | 458 kts | 248° |
| 2026-04-18 08:19 | 38.29174 | 113.69321 | 35953 ft | 458 kts | 248° |
| 2026-04-18 08:20 | 38.26880 | 113.63267 | 35946 ft | 457 kts | 248° |
| 2026-04-18 08:20 | 38.23659 | 113.54766 | 35962 ft | 456 kts | 248° |
| 2026-04-18 08:21 | 38.21368 | 113.48728 | 35961 ft | 457 kts | 248° |
| 2026-04-18 08:21 | 38.18604 | 113.41459 | 35959 ft | 457 kts | 248° |
| 2026-04-18 08:22 | 38.15838 | 113.34191 | 35955 ft | 456 kts | 248° |
| 2026-04-18 08:22 | 38.13116 | 113.26906 | 35952 ft | 457 kts | 249° |
| 2026-04-18 08:23 | 38.10406 | 113.19612 | 35971 ft | 457 kts | 249° |
| 2026-04-18 08:23 | 38.07682 | 113.12316 | 35953 ft | 458 kts | 249° |
| 2026-04-18 08:24 | 38.04948 | 113.05025 | 35976 ft | 457 kts | 248° |
| 2026-04-18 08:24 | 38.02211 | 112.97747 | 35968 ft | 457 kts | 248° |
| 2026-04-18 08:25 | 37.99475 | 112.90491 | 35965 ft | 456 kts | 248° |